createdAt,value
2023-05-13T00:00:50.035Z,4.80
2023-05-13T00:03:18.642Z,6.40
2023-05-13T00:05:46.978Z,6.10
2023-05-13T00:08:14.987Z,6.00
2023-05-13T00:10:42.893Z,5.60
2023-05-13T00:13:10.870Z,6.10
2023-05-13T00:15:38.798Z,5.50
2023-05-13T00:18:06.980Z,5.70
2023-05-13T00:20:34.905Z,5.60
2023-05-13T00:23:03.389Z,4.70
2023-05-13T00:25:31.371Z,5.60
2023-05-13T00:27:59.366Z,5.40
2023-05-13T00:30:27.304Z,5.20
2023-05-13T00:32:55.445Z,4.90
2023-05-13T00:35:23.441Z,6.00
2023-05-13T00:37:51.328Z,5.60
2023-05-13T00:40:24.570Z,6.00
2023-05-13T00:42:53.983Z,7.80
2023-05-13T00:45:21.914Z,10.30
2023-05-13T00:47:50.361Z,8.30
2023-05-13T00:50:18.749Z,8.00
2023-05-13T00:52:49.876Z,8.20
2023-05-13T00:55:17.916Z,8.90
2023-05-13T00:57:45.883Z,9.00
2023-05-13T01:00:14.380Z,8.40
2023-05-13T01:02:57.340Z,8.30
2023-05-13T01:05:35.318Z,8.40
2023-05-13T01:08:06.188Z,9.00
2023-05-13T01:10:49.852Z,8.70
2023-05-13T01:13:24.783Z,7.70
2023-05-13T01:16:10.496Z,9.10
2023-05-13T01:18:43.783Z,8.70
2023-05-13T01:21:12.516Z,8.80
2023-05-13T01:23:40.509Z,9.00
2023-05-13T01:26:08.634Z,8.50
2023-05-13T01:28:36.877Z,7.60
2023-05-13T01:31:06.227Z,7.80
2023-05-13T01:33:34.331Z,8.60
2023-05-13T01:36:03.215Z,8.30
2023-05-13T01:38:33.026Z,9.60
2023-05-13T01:41:01.394Z,9.20
2023-05-13T01:43:31.459Z,8.70
2023-05-13T01:46:01.028Z,8.90
2023-05-13T01:48:29.101Z,8.40
2023-05-13T01:50:58.411Z,8.50
2023-05-13T01:53:26.954Z,8.50
2023-05-13T01:55:54.819Z,8.90
2023-05-13T01:58:22.956Z,9.20
2023-05-13T02:00:51.029Z,8.40
2023-05-13T02:03:19.456Z,10.20
2023-05-13T02:05:49.026Z,8.60
2023-05-13T02:08:16.909Z,9.20
2023-05-13T02:10:45.300Z,9.80
2023-05-13T02:13:13.250Z,9.20
2023-05-13T02:15:41.724Z,8.90
2023-05-13T02:18:10.434Z,8.60
2023-05-13T02:20:38.456Z,8.30
2023-05-13T02:23:07.005Z,8.50
2023-05-13T02:25:36.836Z,8.50
2023-05-13T02:28:04.940Z,8.90
2023-05-13T02:30:33.053Z,8.90
2023-05-13T02:33:01.652Z,9.10
2023-05-13T02:35:30.148Z,8.20
2023-05-13T02:37:58.817Z,8.80
2023-05-13T02:40:27.545Z,8.60
2023-05-13T02:42:55.877Z,8.60
2023-05-13T02:45:26.110Z,9.00
2023-05-13T02:47:54.399Z,10.00
2023-05-13T02:50:23.272Z,9.50
2023-05-13T02:52:51.901Z,9.40
2023-05-13T02:55:20.075Z,9.40
2023-05-13T02:57:48.048Z,8.90
2023-05-13T03:00:16.760Z,8.40
2023-05-13T03:02:44.783Z,8.90
2023-05-13T03:05:12.767Z,9.30
2023-05-13T03:07:40.764Z,10.20
2023-05-13T03:10:09.290Z,10.30
2023-05-13T03:12:37.203Z,9.70
2023-05-13T03:15:05.337Z,8.20
2023-05-13T03:17:33.602Z,8.70
2023-05-13T03:20:01.642Z,9.00
2023-05-13T03:22:29.896Z,9.10
2023-05-13T03:24:58.611Z,8.20
2023-05-13T03:27:33.342Z,8.80
2023-05-13T03:30:01.317Z,9.40
2023-05-13T03:32:32.013Z,9.20
2023-05-13T03:35:03.187Z,9.20
2023-05-13T03:37:31.405Z,8.70
2023-05-13T03:39:59.384Z,8.40
2023-05-13T03:42:27.939Z,8.40
2023-05-13T03:44:57.240Z,9.30
2023-05-13T03:47:25.627Z,11.60
2023-05-13T03:49:54.637Z,11.00
2023-05-13T03:52:23.213Z,10.40
2023-05-13T03:54:51.197Z,9.90
2023-05-13T03:57:19.248Z,10.20
2023-05-13T03:59:47.611Z,8.30
2023-05-13T04:02:15.525Z,7.60
2023-05-13T04:04:43.474Z,7.60
2023-05-13T04:07:11.385Z,7.70
2023-05-13T04:09:39.411Z,7.90
2023-05-13T04:12:07.534Z,7.70
2023-05-13T04:14:35.444Z,7.70
2023-05-13T04:17:04.150Z,9.10
2023-05-13T04:19:32.193Z,8.60
2023-05-13T04:22:00.289Z,7.90
2023-05-13T04:24:28.145Z,7.50
2023-05-13T04:26:56.189Z,9.70
2023-05-13T04:29:24.925Z,10.20
2023-05-13T04:31:52.924Z,11.50
2023-05-13T04:34:21.326Z,11.90
2023-05-13T04:36:49.760Z,9.30
2023-05-13T04:39:17.710Z,8.00
2023-05-13T04:41:46.353Z,7.70
2023-05-13T04:44:14.394Z,7.90
2023-05-13T04:46:45.010Z,7.00
2023-05-13T04:49:13.104Z,6.50
2023-05-13T04:51:41.713Z,7.50
2023-05-13T04:54:10.202Z,7.40
2023-05-13T04:56:38.176Z,6.70
2023-05-13T04:59:06.133Z,7.40
2023-05-13T05:01:34.184Z,7.60
2023-05-13T05:04:02.727Z,8.30
2023-05-13T05:06:32.603Z,7.80
2023-05-13T05:09:01.231Z,7.70
2023-05-13T05:11:29.300Z,8.50
2023-05-13T05:13:57.745Z,7.70
2023-05-13T05:16:25.776Z,8.50
2023-05-13T05:18:53.806Z,8.00
2023-05-13T05:21:21.864Z,7.40
2023-05-13T05:23:50.616Z,7.80
2023-05-13T05:26:19.808Z,8.30
2023-05-13T05:28:48.618Z,8.70
2023-05-13T05:31:18.293Z,8.40
2023-05-13T05:33:46.309Z,9.20
2023-05-13T05:36:14.244Z,8.50
2023-05-13T05:38:42.194Z,9.90
2023-05-13T05:41:11.032Z,10.80
2023-05-13T05:43:39.003Z,10.60
2023-05-13T05:46:07.125Z,11.50
2023-05-13T05:48:35.182Z,7.40
2023-05-13T05:51:04.224Z,7.10
2023-05-13T05:53:37.637Z,7.60
2023-05-13T05:56:06.894Z,6.70
2023-05-13T05:58:36.019Z,7.60
2023-05-13T06:01:04.061Z,7.20
2023-05-13T06:03:32.226Z,7.60
2023-05-13T06:06:00.415Z,7.30
2023-05-13T06:08:30.464Z,7.60
2023-05-13T06:10:59.446Z,7.30
2023-05-13T06:13:27.605Z,7.40
2023-05-13T06:15:56.451Z,7.20
2023-05-13T06:18:24.630Z,6.80
2023-05-13T06:20:52.559Z,8.20
2023-05-13T06:23:20.502Z,7.20
2023-05-13T06:25:48.507Z,6.40
2023-05-13T06:28:16.556Z,8.40
2023-05-13T06:30:46.030Z,7.00
2023-05-13T06:33:14.057Z,7.10
2023-05-13T06:35:42.310Z,8.40
2023-05-13T06:38:13.247Z,6.40
2023-05-13T06:40:41.416Z,6.30
2023-05-13T06:43:09.439Z,6.50
2023-05-13T06:45:40.366Z,6.80
2023-05-13T06:48:08.661Z,6.30
2023-05-13T06:50:38.167Z,6.40
2023-05-13T06:53:06.155Z,6.30
2023-05-13T06:55:35.993Z,5.70
2023-05-13T06:58:03.924Z,6.20
2023-05-13T07:00:31.858Z,6.10
2023-05-13T07:02:59.974Z,6.40
2023-05-13T07:05:27.930Z,6.30
2023-05-13T07:07:55.925Z,6.50
2023-05-13T07:10:24.244Z,6.60
2023-05-13T07:12:52.681Z,7.30
2023-05-13T07:15:21.234Z,6.80
2023-05-13T07:17:49.531Z,7.00
2023-05-13T07:20:22.230Z,7.40
2023-05-13T07:22:51.250Z,6.70
2023-05-13T07:25:19.246Z,7.40
2023-05-13T07:27:47.939Z,6.90
2023-05-13T07:30:16.111Z,6.80
2023-05-13T07:32:44.308Z,6.10
2023-05-13T07:35:12.422Z,6.40
2023-05-13T07:37:40.486Z,6.30
2023-05-13T07:40:09.088Z,6.80
2023-05-13T07:42:37.602Z,6.60
2023-05-13T07:45:06.678Z,5.90
2023-05-13T07:47:34.829Z,5.60
2023-05-13T07:50:02.889Z,5.20
2023-05-13T07:52:31.805Z,5.80
2023-05-13T07:54:59.692Z,5.50
2023-05-13T07:57:27.681Z,5.60
2023-05-13T07:59:55.718Z,6.50
2023-05-13T08:02:24.554Z,5.50
2023-05-13T08:04:52.548Z,5.80
2023-05-13T08:07:20.607Z,5.00
2023-05-13T08:09:48.522Z,5.10
2023-05-13T08:12:16.433Z,5.50
2023-05-13T08:14:44.310Z,5.70
2023-05-13T08:17:12.186Z,5.70
2023-05-13T08:19:40.441Z,6.20
2023-05-13T08:22:08.379Z,5.70
2023-05-13T08:24:36.309Z,5.70
2023-05-13T08:27:05.827Z,5.20
2023-05-13T08:29:33.720Z,6.10
2023-05-13T08:32:01.723Z,5.80
2023-05-13T08:34:29.708Z,5.70
2023-05-13T08:36:57.544Z,5.90
2023-05-13T08:39:25.574Z,5.80
2023-05-13T08:41:56.938Z,5.20
2023-05-13T08:44:28.764Z,5.70
2023-05-13T08:47:18.724Z,6.00
2023-05-13T08:49:47.062Z,5.70
2023-05-13T08:52:14.958Z,6.50
2023-05-13T08:54:44.207Z,5.90
2023-05-13T08:57:12.132Z,6.40
2023-05-13T08:59:40.373Z,7.00
2023-05-13T09:02:10.427Z,6.00
2023-05-13T09:04:41.277Z,5.70
2023-05-13T09:07:09.846Z,6.10
2023-05-13T09:09:38.060Z,5.10
2023-05-13T09:12:06.216Z,5.50
2023-05-13T09:14:34.679Z,5.90
2023-05-13T09:17:02.615Z,6.00
2023-05-13T09:19:31.230Z,5.90
2023-05-13T09:21:59.449Z,7.20
2023-05-13T09:24:27.862Z,6.20
2023-05-13T09:26:55.747Z,6.90
2023-05-13T09:29:24.771Z,5.80
2023-05-13T09:31:58.181Z,4.80
2023-05-13T09:37:03.250Z,5.10
2023-05-13T09:39:34.337Z,4.50
2023-05-13T09:42:04.669Z,4.30
2023-05-13T09:44:34.100Z,4.80
2023-05-13T09:47:02.930Z,4.50
2023-05-13T09:49:31.863Z,4.10
2023-05-13T09:51:59.919Z,4.00
2023-05-13T09:54:34.362Z,4.10
2023-05-13T09:57:03.160Z,4.00
2023-05-13T09:59:36.821Z,4.30
2023-05-13T10:02:07.112Z,4.50
2023-05-13T10:04:35.439Z,3.70
2023-05-13T10:07:05.131Z,4.40
2023-05-13T10:09:37.407Z,3.90
2023-05-13T10:12:08.606Z,3.70
2023-05-13T10:14:37.463Z,3.80
2023-05-13T10:17:06.630Z,4.10
2023-05-13T10:19:35.294Z,3.20
2023-05-13T10:22:03.654Z,2.50
2023-05-13T10:24:32.604Z,3.70
2023-05-13T10:27:01.880Z,2.60
2023-05-13T10:29:30.112Z,3.00
2023-05-13T10:31:59.898Z,2.80
2023-05-13T10:34:28.777Z,3.00
2023-05-13T10:37:06.190Z,3.40
2023-05-13T10:40:06.633Z,3.10
2023-05-13T10:42:43.133Z,3.10
2023-05-13T10:45:11.432Z,3.30
2023-05-13T10:47:39.648Z,3.00
2023-05-13T10:50:23.469Z,3.00
2023-05-13T10:52:56.099Z,2.80
2023-05-13T10:55:26.200Z,2.70
2023-05-13T10:58:13.297Z,2.70
2023-05-13T11:00:45.671Z,3.20
2023-05-13T11:03:16.622Z,2.50
2023-05-13T11:05:58.726Z,3.00
2023-05-13T11:08:40.365Z,2.60
2023-05-13T11:11:23.585Z,3.40
2023-05-13T11:13:53.313Z,3.90
2023-05-13T11:16:23.175Z,4.40
2023-05-13T11:18:53.106Z,3.10
2023-05-13T11:21:39.560Z,3.50
2023-05-13T11:24:08.232Z,2.80
2023-05-13T11:26:54.361Z,3.00
2023-05-13T11:29:29.897Z,3.00
2023-05-13T11:32:00.523Z,2.80
2023-05-13T11:34:29.733Z,1.70
2023-05-13T11:37:04.127Z,1.60
2023-05-13T11:39:33.121Z,1.80
2023-05-13T11:42:02.999Z,2.20
2023-05-13T11:44:31.134Z,1.80
2023-05-13T11:47:00.893Z,2.70
2023-05-13T11:49:34.646Z,1.90
2023-05-13T11:52:04.511Z,1.90
2023-05-13T11:54:32.709Z,2.20
2023-05-13T11:57:00.839Z,2.50
2023-05-13T11:59:35.869Z,2.30
2023-05-13T12:02:06.798Z,2.30
2023-05-13T12:04:35.464Z,1.90
2023-05-13T12:07:03.667Z,2.20
2023-05-13T12:09:31.528Z,2.50
2023-05-13T12:11:59.615Z,2.90
2023-05-13T12:14:27.965Z,2.10
2023-05-13T12:16:57.401Z,2.50
2023-05-13T12:19:25.423Z,2.40
2023-05-13T12:21:53.473Z,2.20
2023-05-13T12:24:22.207Z,2.80
2023-05-13T12:26:50.437Z,2.70
2023-05-13T12:29:18.362Z,2.60
2023-05-13T12:32:04.118Z,2.70
2023-05-13T12:34:33.845Z,2.80
2023-05-13T12:37:14.637Z,3.00
2023-05-13T12:39:42.941Z,3.30
2023-05-13T12:42:18.317Z,3.10
2023-05-13T12:44:47.145Z,3.40
2023-05-13T12:47:19.884Z,2.90
2023-05-13T12:49:54.963Z,2.70
2023-05-13T12:52:22.918Z,3.30
2023-05-13T12:54:50.891Z,3.40
2023-05-13T12:57:20.604Z,3.20
2023-05-13T12:59:48.674Z,3.90
2023-05-13T13:02:16.571Z,3.20
2023-05-13T13:04:44.514Z,3.00
2023-05-13T13:07:14.730Z,3.70
2023-05-13T13:09:42.859Z,3.50
2023-05-13T13:12:10.932Z,3.30
2023-05-13T13:14:38.798Z,3.20
2023-05-13T13:17:07.130Z,3.20
2023-05-13T13:19:35.043Z,4.00
2023-05-13T13:22:03.196Z,3.60
2023-05-13T13:24:31.577Z,4.70
2023-05-13T13:26:59.507Z,3.20
2023-05-13T13:29:27.383Z,3.80
2023-05-13T13:31:55.328Z,4.20
2023-05-13T13:34:23.272Z,4.90
2023-05-13T13:36:51.236Z,7.30
2023-05-13T13:39:19.294Z,4.80
2023-05-13T13:41:47.349Z,4.40
2023-05-13T13:44:15.413Z,4.40
2023-05-13T13:46:43.557Z,4.20
2023-05-13T13:49:20.335Z,4.80
2023-05-13T13:51:53.881Z,5.00
2023-05-13T13:54:21.835Z,5.20
2023-05-13T13:56:49.871Z,5.10
2023-05-13T13:59:19.337Z,5.10
2023-05-13T14:01:47.500Z,6.40
2023-05-13T14:04:19.880Z,7.60
2023-05-13T14:06:47.864Z,5.90
2023-05-13T14:09:16.209Z,7.50
2023-05-13T14:11:44.257Z,7.20
2023-05-13T14:14:12.341Z,5.80
2023-05-13T14:16:40.398Z,6.50
2023-05-13T14:19:08.586Z,7.20
2023-05-13T14:21:36.543Z,5.10
2023-05-13T14:24:04.642Z,5.30
2023-05-13T14:26:32.596Z,5.30
2023-05-13T14:29:00.484Z,5.70
2023-05-13T14:31:28.510Z,6.10
2023-05-13T14:33:56.770Z,5.30
2023-05-13T14:36:26.686Z,5.90
2023-05-13T14:38:54.776Z,6.60
2023-05-13T14:41:23.240Z,7.20
2023-05-13T14:43:51.615Z,5.60
2023-05-13T14:46:19.624Z,6.00
2023-05-13T14:48:47.694Z,6.60
2023-05-13T14:51:15.659Z,5.00
2023-05-13T14:53:43.616Z,5.00
2023-05-13T14:56:11.635Z,5.30
2023-05-13T14:58:39.584Z,4.30
2023-05-13T15:01:07.525Z,11.60
2023-05-13T15:03:35.552Z,9.30
2023-05-13T15:06:03.725Z,5.60
2023-05-13T15:08:31.846Z,4.90
2023-05-13T15:11:00.453Z,4.70
2023-05-13T15:13:29.784Z,4.40
2023-05-13T15:15:57.668Z,5.70
2023-05-13T15:18:25.647Z,4.70
2023-05-13T15:20:53.566Z,4.00
2023-05-13T15:23:21.529Z,4.40
2023-05-13T15:25:49.548Z,5.60
2023-05-13T15:28:17.466Z,4.90
2023-05-13T15:30:45.519Z,4.40
2023-05-13T15:33:13.559Z,6.20
2023-05-13T15:35:42.532Z,6.80
2023-05-13T15:38:10.865Z,7.00
2023-05-13T15:40:39.251Z,6.40
2023-05-13T15:43:07.126Z,5.70
2023-05-13T15:45:35.121Z,5.70
2023-05-13T15:48:03.161Z,6.60
2023-05-13T15:50:31.201Z,6.00
2023-05-13T15:52:59.431Z,6.70
2023-05-13T15:55:27.405Z,6.80
2023-05-13T15:57:55.357Z,7.00
2023-05-13T16:00:24.681Z,6.80
2023-05-13T16:02:52.925Z,6.10
2023-05-13T16:05:21.092Z,8.50
2023-05-13T16:07:49.027Z,9.50
2023-05-13T16:10:16.998Z,8.40
2023-05-13T16:12:44.963Z,8.80
2023-05-13T16:15:12.886Z,10.00
2023-05-13T16:17:43.413Z,7.70
2023-05-13T16:20:12.041Z,8.40
2023-05-13T16:22:40.135Z,8.90
2023-05-13T16:25:10.387Z,9.20
2023-05-13T16:27:39.633Z,8.70
2023-05-13T16:30:08.015Z,10.50
2023-05-13T16:32:36.562Z,7.90
2023-05-13T16:35:05.711Z,6.70
2023-05-13T16:37:36.706Z,9.70
2023-05-13T16:40:05.404Z,7.60
2023-05-13T16:42:33.330Z,8.00
2023-05-13T16:45:01.759Z,7.50
2023-05-13T16:47:29.882Z,7.20
2023-05-13T16:49:57.858Z,6.80
2023-05-13T16:52:26.098Z,6.30
2023-05-13T16:54:56.591Z,6.90
2023-05-13T16:57:25.786Z,6.70
2023-05-13T16:59:53.675Z,8.60
2023-05-13T17:02:21.743Z,7.30
2023-05-13T17:04:49.812Z,6.60
2023-05-13T17:07:17.790Z,6.70
2023-05-13T17:09:45.882Z,6.60
2023-05-13T17:12:13.854Z,6.90
2023-05-13T17:14:41.891Z,7.80
2023-05-13T17:17:09.979Z,7.20
2023-05-13T17:19:38.125Z,7.80
2023-05-13T17:22:06.093Z,14.30
2023-05-13T17:24:34.089Z,10.00
2023-05-13T17:27:02.053Z,10.70
2023-05-13T17:29:30.052Z,11.80
2023-05-13T17:31:58.033Z,11.50
2023-05-13T17:34:26.017Z,12.20
2023-05-13T17:36:53.928Z,12.40
2023-05-13T17:39:21.866Z,11.60
2023-05-13T17:41:49.807Z,13.30
2023-05-13T17:44:19.989Z,14.90
2023-05-13T17:46:47.936Z,21.40
2023-05-13T17:49:16.014Z,15.20
2023-05-13T17:51:43.931Z,15.00
2023-05-13T17:54:12.077Z,19.80
2023-05-13T17:56:40.061Z,15.90
2023-05-13T17:59:08.018Z,16.20
2023-05-13T18:01:35.969Z,17.80
2023-05-13T18:04:03.926Z,15.70
2023-05-13T18:06:32.293Z,17.70
2023-05-13T18:09:00.408Z,16.90
2023-05-13T18:11:28.289Z,35.60
2023-05-13T18:13:56.325Z,40.50
2023-05-13T18:16:24.437Z,31.20
2023-05-13T18:18:52.436Z,28.20
2023-05-13T18:21:20.489Z,25.90
2023-05-13T18:23:48.388Z,23.50
2023-05-13T18:26:16.379Z,21.30
2023-05-13T18:28:46.901Z,21.40
2023-05-13T18:31:14.908Z,20.50
2023-05-13T18:33:42.852Z,19.50
2023-05-13T18:36:10.835Z,20.80
2023-05-13T18:38:39.614Z,21.40
2023-05-13T18:41:07.550Z,19.50
2023-05-13T18:43:35.759Z,19.00
2023-05-13T18:46:03.816Z,19.30
2023-05-13T18:48:31.776Z,19.80
2023-05-13T18:50:59.940Z,19.10
2023-05-13T18:53:28.035Z,18.30
2023-05-13T18:55:56.183Z,18.20
2023-05-13T18:58:24.859Z,19.00
2023-05-13T19:00:52.942Z,20.00
2023-05-13T19:03:20.988Z,21.90
2023-05-13T19:05:49.095Z,20.60
2023-05-13T19:08:17.055Z,22.00
2023-05-13T19:10:45.030Z,19.70
2023-05-13T19:13:14.632Z,19.70
2023-05-13T19:15:42.687Z,18.10
2023-05-13T19:18:10.868Z,20.20
2023-05-13T19:20:38.929Z,20.40
2023-05-13T19:23:06.940Z,22.50
2023-05-13T19:25:35.644Z,22.60
2023-05-13T19:28:03.758Z,25.40
2023-05-13T19:30:31.646Z,26.50
2023-05-13T19:32:59.802Z,26.70
2023-05-13T19:35:27.874Z,28.00
2023-05-13T19:37:56.400Z,30.40
2023-05-13T19:40:24.508Z,29.90
2023-05-13T19:42:52.837Z,31.00
2023-05-13T19:45:21.100Z,32.20
2023-05-13T19:47:49.703Z,45.70
2023-05-13T19:50:18.222Z,36.20
2023-05-13T19:52:46.191Z,33.00
2023-05-13T19:55:14.203Z,34.50
2023-05-13T19:57:42.998Z,32.10
2023-05-13T20:00:12.024Z,34.10
2023-05-13T20:02:40.321Z,35.90
2023-05-13T20:05:08.744Z,37.40
2023-05-13T20:07:36.748Z,37.80
2023-05-13T20:10:06.197Z,39.80
2023-05-13T20:12:34.157Z,37.20
2023-05-13T20:15:03.483Z,35.10
2023-05-13T20:17:31.891Z,32.00
2023-05-13T20:20:00.037Z,32.90
2023-05-13T20:22:28.076Z,30.50
2023-05-13T20:24:56.023Z,29.70
2023-05-13T20:27:23.894Z,27.60
2023-05-13T20:29:52.493Z,25.60
2023-05-13T20:32:24.834Z,25.20
2023-05-13T20:34:54.549Z,25.60
2023-05-13T20:37:23.925Z,24.70
2023-05-13T20:39:52.352Z,23.80
2023-05-13T20:42:22.405Z,22.10
2023-05-13T20:44:51.560Z,23.80
2023-05-13T20:47:20.626Z,29.00
2023-05-13T20:49:48.544Z,27.70
2023-05-13T20:52:16.755Z,27.60
2023-05-13T20:54:44.762Z,28.40
2023-05-13T20:57:12.661Z,28.20
2023-05-13T20:59:40.630Z,26.10
2023-05-13T21:02:08.617Z,25.10
2023-05-13T21:04:36.668Z,27.20
2023-05-13T21:07:06.764Z,25.90
2023-05-13T21:09:34.788Z,26.10
2023-05-13T21:12:02.717Z,26.00
2023-05-13T21:14:30.680Z,26.50
2023-05-13T21:17:02.881Z,26.70
2023-05-13T21:19:30.985Z,27.00
2023-05-13T21:22:01.630Z,26.60
2023-05-13T21:24:29.678Z,27.00
2023-05-13T21:26:57.538Z,27.00
2023-05-13T21:29:25.510Z,26.50
2023-05-13T21:31:54.573Z,27.10
2023-05-13T21:34:22.470Z,26.40
2023-05-13T21:36:50.733Z,26.00
2023-05-13T21:39:18.761Z,27.50
2023-05-13T21:41:47.709Z,26.40
2023-05-13T21:44:15.689Z,28.30
2023-05-13T21:46:43.616Z,27.90
2023-05-13T21:49:12.018Z,30.30
2023-05-13T21:51:40.129Z,33.80
2023-05-13T21:54:08.100Z,45.10
2023-05-13T21:56:36.047Z,32.00
2023-05-13T21:59:04.057Z,28.00
2023-05-13T22:01:32.021Z,25.90
2023-05-13T22:04:00.049Z,25.60
2023-05-13T22:06:28.105Z,25.70
2023-05-13T22:08:56.043Z,26.80
2023-05-13T22:11:23.870Z,25.00
2023-05-13T22:13:51.874Z,25.80
2023-05-13T22:16:19.955Z,25.70
2023-05-13T22:18:49.873Z,26.00
2023-05-13T22:21:17.947Z,27.30
2023-05-13T22:23:45.922Z,26.10
2023-05-13T22:26:13.826Z,27.00
2023-05-13T22:28:41.770Z,28.30
2023-05-13T22:31:09.676Z,26.50
2023-05-13T22:33:37.744Z,26.40
2023-05-13T22:36:05.847Z,25.60
2023-05-13T22:38:33.729Z,25.70
2023-05-13T22:41:01.792Z,26.90
2023-05-13T22:43:29.637Z,45.00
2023-05-13T22:45:57.593Z,32.30
2023-05-13T22:48:25.496Z,28.80
2023-05-13T22:50:54.221Z,29.50
2023-05-13T22:53:24.135Z,29.40
2023-05-13T22:55:52.252Z,29.60
2023-05-13T22:58:21.226Z,32.60
2023-05-13T23:00:49.965Z,32.00
2023-05-13T23:03:17.950Z,31.10
2023-05-13T23:05:45.961Z,29.40
2023-05-13T23:08:13.901Z,27.10
2023-05-13T23:10:41.856Z,26.00
2023-05-13T23:13:09.774Z,26.40
2023-05-13T23:15:37.696Z,27.90
2023-05-13T23:18:05.734Z,27.50
2023-05-13T23:20:33.716Z,25.60
2023-05-13T23:23:01.680Z,26.10
2023-05-13T23:25:29.643Z,26.70
2023-05-13T23:27:57.559Z,27.60
2023-05-13T23:30:25.588Z,25.90
2023-05-13T23:32:53.840Z,27.80
2023-05-13T23:35:21.913Z,26.60
2023-05-13T23:37:49.841Z,27.10
2023-05-13T23:40:17.867Z,27.20
2023-05-13T23:42:45.732Z,26.70
2023-05-13T23:45:13.638Z,23.20
2023-05-13T23:47:41.614Z,23.40
2023-05-13T23:50:09.971Z,23.90
2023-05-13T23:52:37.948Z,22.90
2023-05-13T23:55:06.485Z,23.70
2023-05-13T23:57:34.349Z,23.80
